Time;durP1;ratioP1;P1;durP2;ratioP2;P2;SDS_P1;SDS_P2;PMS_P1;PMS_P2;Temp;Humidity;BMP_temperature;BMP_pressure;BME280_temperature;BME280_humidity;BME280_pressure;Samples;Min_cycle;Max_cycle;Signal;HPM_P1;HPM_P2
2022/04/20 00:03:57;;;;;;;1.05;0.52;;;;;;;19.80;28.90;101355.72;16160821;19;129892;-59
2022/04/20 00:09:19;;;;;;;0.30;0.30;;;;;;;19.78;28.57;101357.88;16164478;19;129128;-59
2022/04/20 00:14:40;;;;;;;0.85;0.40;;;;;;;19.75;28.66;101347.25;16158277;19;129648;-59
2022/04/20 00:20:02;;;;;;;0.73;0.50;;;;;;;19.74;28.48;101353.88;16158606;19;129398;-59
2022/04/20 00:25:24;;;;;;;0.55;0.50;;;;;;;19.73;28.73;101354.97;16164936;19;129341;-59
2022/04/20 00:30:46;;;;;;;0.73;0.50;;;;;;;19.68;28.47;101353.78;16151929;19;129707;-59
2022/04/20 00:36:09;;;;;;;0.90;0.70;;;;;;;19.67;28.46;101351.25;16148383;19;129545;-59
2022/04/20 00:41:32;;;;;;;0.95;0.55;;;;;;;19.65;28.80;101354.28;16142962;19;130047;-59
2022/04/20 00:46:55;;;;;;;1.10;0.50;;;;;;;19.63;28.85;101362.00;16144578;19;128948;-59
2022/04/20 00:52:17;;;;;;;1.33;0.40;;;;;;;19.62;28.74;101359.47;16144739;19;130553;-59
2022/04/20 00:57:39;;;;;;;0.38;0.30;;;;;;;19.58;28.76;101361.88;16140946;19;129137;-59
2022/04/20 01:03:01;;;;;;;1.95;0.55;;;;;;;19.58;28.34;101377.69;16138488;19;129496;-59
2022/04/20 01:08:23;;;;;;;0.70;0.50;;;;;;;19.55;28.46;101369.84;16140926;19;128951;-59
2022/04/20 01:13:44;;;;;;;1.52;0.50;;;;;;;19.54;28.52;101371.78;16137690;19;129046;-59
2022/04/20 01:19:06;;;;;;;0.40;0.30;;;;;;;19.52;28.40;101365.63;16142800;19;129934;-59
2022/04/20 01:24:28;;;;;;;0.98;0.60;;;;;;;19.51;28.66;101370.31;16141940;19;129027;-59
2022/04/20 01:29:51;;;;;;;1.23;0.60;;;;;;;19.50;28.32;101373.34;16143065;19;129404;-59
2022/04/20 01:35:13;;;;;;;1.45;0.50;;;;;;;19.48;28.55;101369.97;16144588;19;128751;-59
2022/04/20 01:40:34;;;;;;;0.52;0.30;;;;;;;19.45;28.54;101370.44;16139244;19;129815;-59
2022/04/20 01:45:56;;;;;;;0.47;0.43;;;;;;;19.42;28.14;101365.38;16138677;19;130117;-59
2022/04/20 01:56:58;;;;;;;1.20;0.57;;;;;;;19.41;28.26;101363.69;16139876;19;129483;-59
2022/04/20 02:02:35;;;;;;;0.85;0.40;;;;;;;19.39;28.21;101361.13;16137773;19;129009;-59
2022/04/20 02:07:57;;;;;;;1.02;0.60;;;;;;;19.37;28.20;101361.41;16138417;19;129818;-59
2022/04/20 02:13:19;;;;;;;0.63;0.38;;;;;;;19.35;28.01;101360.78;16137080;19;128865;-59
2022/04/20 02:18:41;;;;;;;0.80;0.30;;;;;;;19.34;28.06;101366.59;16139362;19;129175;-59
2022/04/20 02:24:03;;;;;;;0.63;0.60;;;;;;;19.33;28.20;101362.94;16134235;19;129425;-59
2022/04/20 02:29:24;;;;;;;1.35;0.60;;;;;;;19.32;28.38;101365.97;16139257;19;129455;-59
2022/04/20 02:34:46;;;;;;;0.70;0.50;;;;;;;19.30;28.13;101363.47;16139485;19;129271;-59
2022/04/20 02:40:09;;;;;;;0.55;0.35;;;;;;;19.28;28.45;101365.63;16135151;19;129753;-59
2022/04/20 02:45:31;;;;;;;0.40;0.32;;;;;;;19.27;28.27;101357.50;16133160;19;130807;-59
2022/04/20 02:50:52;;;;;;;0.40;0.40;;;;;;;19.26;28.19;101365.00;16134409;19;129516;-59
2022/04/20 02:56:14;;;;;;;0.63;0.40;;;;;;;19.25;28.16;101362.50;16132953;19;128981;-59
2022/04/20 03:01:36;;;;;;;0.88;0.50;;;;;;;19.23;28.19;101373.81;16129910;19;129528;-59
2022/04/20 03:06:58;;;;;;;1.00;0.50;;;;;;;19.24;28.10;101377.44;16132821;19;129009;-59
2022/04/20 03:12:19;;;;;;;1.15;0.50;;;;;;;19.21;28.36;101378.75;16126283;19;130119;-59
2022/04/20 03:17:42;;;;;;;0.50;0.50;;;;;;;19.21;28.13;101376.81;16133976;19;130591;-59
2022/04/20 03:23:03;;;;;;;0.47;0.40;;;;;;;19.20;28.48;101388.13;16131617;19;128891;-59
2022/04/20 03:28:25;;;;;;;0.70;0.40;;;;;;;19.18;28.19;101388.38;16136304;19;129860;-59
2022/04/20 03:33:47;;;;;;;1.15;0.50;;;;;;;19.16;28.51;101393.28;16135475;19;129494;-59
2022/04/20 03:39:09;;;;;;;0.43;0.40;;;;;;;19.16;28.40;101395.25;16135242;19;129561;-59
2022/04/20 03:44:31;;;;;;;0.90;0.50;;;;;;;19.15;28.03;101399.09;16128856;19;130453;-59
2022/04/20 03:49:53;;;;;;;0.95;0.63;;;;;;;19.13;28.24;101406.81;16134548;19;129679;-59
2022/04/20 03:55:15;;;;;;;0.47;0.45;;;;;;;19.13;28.17;101407.66;16131973;19;129662;-59
2022/04/20 04:00:36;;;;;;;0.85;0.40;;;;;;;19.10;28.27;101408.13;16128288;19;130518;-59
2022/04/20 04:05:58;;;;;;;0.75;0.50;;;;;;;19.10;28.18;101412.81;16135332;19;129389;-59
2022/04/20 04:11:20;;;;;;;0.73;0.52;;;;;;;19.09;28.11;101412.00;16145538;19;129584;-59
2022/04/20 04:16:42;;;;;;;0.65;0.50;;;;;;;19.07;28.26;101420.56;16145795;19;128982;-59
2022/04/20 04:22:05;;;;;;;1.58;0.60;;;;;;;19.06;28.12;101429.94;16145933;19;129668;-59
2022/04/20 04:27:26;;;;;;;1.38;0.43;;;;;;;19.05;28.32;101438.50;16146985;19;129202;-59
2022/04/20 04:32:48;;;;;;;0.60;0.30;;;;;;;19.04;28.33;101437.66;16147133;19;129759;-59
2022/04/20 04:38:10;;;;;;;0.50;0.40;;;;;;;19.02;28.44;101456.44;16145290;19;129619;-59
2022/04/20 04:43:31;;;;;;;1.55;0.50;;;;;;;19.01;28.24;101443.66;16143432;19;132221;-59
2022/04/20 04:48:53;;;;;;;0.52;0.52;;;;;;;19.01;28.31;101456.69;16146850;19;129874;-59
2022/04/20 04:54:15;;;;;;;0.40;0.35;;;;;;;18.99;28.08;101451.38;16141804;19;129683;-59
2022/04/20 04:59:38;;;;;;;0.60;0.32;;;;;;;18.99;28.19;101450.53;16145592;19;131219;-59
2022/04/20 05:04:59;;;;;;;0.98;0.50;;;;;;;18.97;28.08;101449.94;16136671;19;129252;-59
2022/04/20 05:10:24;;;;;;;0.45;0.30;;;;;;;18.96;28.25;101454.63;16143018;19;130312;-59
2022/04/20 05:15:46;;;;;;;2.00;0.55;;;;;;;18.98;28.07;101460.78;16139818;19;131028;-60
2022/04/20 05:21:07;;;;;;;1.23;0.60;;;;;;;19.18;28.53;101467.97;16142377;19;130533;-60
2022/04/20 05:26:29;;;;;;;3.47;0.60;;;;;;;19.46;28.00;101472.88;16144166;19;129692;-61
2022/04/20 05:31:53;;;;;;;1.33;0.63;;;;;;;19.83;27.87;101477.38;16141174;19;130167;-58
2022/04/20 05:42:56;;;;;;;1.77;0.60;;;;;;;20.49;27.07;101484.72;16137598;19;129345;-57
2022/04/20 05:48:18;;;;;;;2.40;0.73;;;;;;;20.71;27.24;101479.31;16141617;19;129288;-56
2022/04/20 05:53:39;;;;;;;4.25;0.90;;;;;;;20.88;27.10;101487.72;16142221;19;129385;-58
2022/04/20 05:59:01;;;;;;;1.95;0.80;;;;;;;20.96;26.64;101494.84;16131787;19;132494;-58
2022/04/20 06:04:24;;;;;;;2.05;0.82;;;;;;;20.99;27.09;101488.78;16135619;19;129008;-59
2022/04/20 06:09:46;;;;;;;2.53;0.80;;;;;;;20.94;26.95;101491.47;16141037;19;128911;-57
2022/04/20 06:15:12;;;;;;;0.70;0.50;;;;;;;20.89;26.60;101483.88;16134914;19;129375;-58
2022/04/20 06:20:34;;;;;;;1.90;0.60;;;;;;;20.82;26.82;101489.56;16141370;19;129927;-59
2022/04/20 06:25:56;;;;;;;3.08;0.73;;;;;;;20.76;26.83;101487.78;16141966;19;129302;-60
2022/04/20 06:31:18;;;;;;;2.97;1.30;;;;;;;20.68;26.98;101493.69;16137391;19;129434;-60
2022/04/20 06:36:40;;;;;;;6.32;0.80;;;;;;;20.55;26.99;101490.13;16141274;19;129460;-60
2022/04/20 06:42:02;;;;;;;2.33;0.70;;;;;;;20.45;27.08;101484.34;16137666;19;129202;-59
2022/04/20 06:47:23;;;;;;;8.23;1.13;;;;;;;20.37;27.04;101487.50;16134128;19;129106;-60
2022/04/20 06:58:39;;;;;;;3.78;0.80;;;;;;;20.21;27.37;101489.94;16137572;19;129657;-60
2022/04/20 07:04:01;;;;;;;1.90;0.70;;;;;;;20.16;27.18;101495.41;16134984;19;130207;-60
2022/04/20 07:09:23;;;;;;;3.72;0.95;;;;;;;20.13;27.09;101493.09;16137598;19;129665;-60
2022/04/20 07:14:45;;;;;;;2.53;0.70;;;;;;;20.10;27.41;101500.00;16131351;19;129308;-60
2022/04/20 07:20:09;;;;;;;3.30;0.70;;;;;;;20.07;27.21;101497.69;16136035;19;130537;-59
2022/04/20 07:25:32;;;;;;;1.80;0.68;;;;;;;20.05;27.28;101496.25;16130741;19;129133;-59
2022/04/20 07:30:54;;;;;;;1.48;0.70;;;;;;;20.03;27.20;101509.53;16135753;19;130497;-59
2022/04/20 07:36:16;;;;;;;1.15;0.70;;;;;;;19.99;27.46;101498.91;16134479;19;129731;-59
2022/04/20 07:41:39;;;;;;;3.80;0.60;;;;;;;20.00;27.33;101513.63;16144164;19;129185;-59
2022/04/20 07:47:00;;;;;;;2.00;0.80;;;;;;;19.97;27.63;101516.88;16146952;19;129442;-59
2022/04/20 07:52:23;;;;;;;2.78;0.70;;;;;;;19.96;27.79;101513.22;16151135;19;129368;-59
2022/04/20 07:57:45;;;;;;;0.85;0.50;;;;;;;19.95;27.72;101519.88;16149889;19;129884;-59
2022/04/20 08:03:12;;;;;;;3.95;0.65;;;;;;;19.95;27.60;101521.81;16146388;19;129397;-59
2022/04/20 08:08:34;;;;;;;1.30;0.50;;;;;;;19.92;27.65;101525.91;16148851;19;128967;-59
2022/04/20 08:14:10;;;;;;;1.35;0.60;;;;;;;19.92;27.67;101531.47;16146055;19;129921;-58
2022/04/20 08:19:33;;;;;;;4.72;0.50;;;;;;;19.90;27.54;101525.31;16145077;19;129576;-59
2022/04/20 08:24:54;;;;;;;0.65;0.43;;;;;;;19.89;27.95;101523.63;16144840;19;130366;-60
2022/04/20 08:30:16;;;;;;;0.68;0.32;;;;;;;19.87;27.48;101525.78;16149167;19;130264;-59
2022/04/20 08:35:38;;;;;;;1.17;0.50;;;;;;;19.86;27.83;101529.63;16149009;19;129219;-59
2022/04/20 08:41:00;;;;;;;2.28;0.60;;;;;;;19.84;27.72;101526.25;16148217;19;129176;-59
2022/04/20 08:46:24;;;;;;;1.85;0.40;;;;;;;19.84;27.86;101534.59;16147013;19;131890;-59
2022/04/20 08:57:33;;;;;;;2.25;0.70;;;;;;;19.83;27.71;101530.97;16142752;19;129264;-56
2022/04/20 09:02:57;;;;;;;2.22;0.60;;;;;;;19.82;27.91;101532.06;16145644;19;129275;-58
2022/04/20 09:08:19;;;;;;;0.75;0.60;;;;;;;19.81;27.71;101515.66;16147817;19;129408;-59
2022/04/20 09:13:42;;;;;;;3.15;0.68;;;;;;;19.83;27.28;101530.13;16140511;19;129639;-58
2022/04/20 09:19:04;;;;;;;0.93;0.55;;;;;;;19.83;27.22;101521.78;16145006;19;129242;-58
2022/04/20 09:24:25;;;;;;;1.23;0.60;;;;;;;19.83;27.60;101521.78;16142351;19;129130;-58
2022/04/20 09:29:55;;;;;;;3.10;0.68;;;;;;;19.83;27.30;101525.44;16145775;19;129280;-59
2022/04/20 09:35:19;;;;;;;3.03;0.52;;;;;;;19.84;27.37;101517.94;16140190;19;129324;-59
2022/04/20 09:40:40;;;;;;;2.45;0.88;;;;;;;19.84;27.52;101515.16;16145253;19;129643;-58
2022/04/20 09:51:50;;;;;;;2.95;0.80;;;;;;;19.80;26.87;101505.63;16145401;19;130018;-58
2022/04/20 09:57:13;;;;;;;2.47;0.52;;;;;;;19.79;26.71;101504.78;16144201;19;128928;-58
2022/04/20 10:02:49;;;;;;;2.85;0.70;;;;;;;19.80;27.02;101492.59;16140002;19;129977;-58
2022/04/20 10:08:11;;;;;;;1.67;0.70;;;;;;;19.75;27.02;101489.69;16142714;19;128915;-58
2022/04/20 10:13:36;;;;;;;0.80;0.60;;;;;;;19.72;26.41;101475.44;16139162;19;130475;-59
2022/04/20 10:18:58;;;;;;;1.67;0.75;;;;;;;19.69;26.40;101474.00;16142284;19;129469;-58
2022/04/20 10:24:25;;;;;;;2.60;0.80;;;;;;;19.68;26.67;101473.16;16140594;19;129058;-58
2022/04/20 10:29:57;;;;;;;1.80;0.65;;;;;;;19.65;26.47;101465.31;16138676;19;128908;-58
2022/04/20 10:35:21;;;;;;;4.53;0.75;;;;;;;19.64;26.60;101469.16;16140145;19;129473;-59
2022/04/20 10:41:06;;;;;;;1.30;0.85;;;;;;;19.65;26.60;101453.34;16140082;19;129289;-58
2022/04/20 10:46:28;;;;;;;3.25;0.80;;;;;;;19.62;26.25;101456.63;16136047;19;129512;-58
2022/04/20 10:51:51;;;;;;;3.90;1.00;;;;;;;19.58;26.00;101442.34;16140933;19;129649;-58
2022/04/20 10:57:13;;;;;;;1.02;0.80;;;;;;;19.53;26.19;101443.06;16138755;19;128893;-58
2022/04/20 11:02:53;;;;;;;19.38;6.70;;;;;;;19.55;26.41;101442.00;16140222;19;129560;-60
2022/04/20 11:08:16;;;;;;;16.63;4.65;;;;;;;19.56;26.46;101433.44;16138805;19;130474;-58
2022/04/20 11:19:32;;;;;;;9.48;3.45;;;;;;;19.60;26.28;101423.53;16142931;19;128979;-61
2022/04/20 11:25:02;;;;;;;7.70;3.40;;;;;;;19.64;26.11;101429.44;16136603;19;129673;-61
2022/04/20 11:30:25;;;;;;;5.47;2.70;;;;;;;19.67;25.81;101423.41;16137266;19;130035;-60
2022/04/20 11:35:56;;;;;;;6.40;2.72;;;;;;;19.69;25.96;101410.97;16138821;19;129211;-60
2022/04/20 11:41:19;;;;;;;8.18;2.42;;;;;;;19.74;26.15;101412.19;16138191;19;129031;-60
2022/04/20 11:46:44;;;;;;;4.15;2.15;;;;;;;19.75;25.89;101417.53;16132102;19;128957;-59
2022/04/20 11:52:14;;;;;;;8.75;1.90;;;;;;;19.77;26.26;101406.16;16133027;19;129262;-59
2022/04/20 11:57:38;;;;;;;6.75;1.80;;;;;;;19.75;26.16;101398.09;16136832;19;129628;-59
2022/04/20 12:02:59;;;;;;;6.93;1.80;;;;;;;19.73;26.03;101393.84;16134638;19;130188;-59
2022/04/20 12:08:24;;;;;;;5.93;1.80;;;;;;;19.73;26.27;101402.16;16136444;19;129527;-59
2022/04/20 12:13:46;;;;;;;6.72;1.55;;;;;;;19.68;25.74;101389.03;16130648;19;129218;-58
2022/04/20 12:19:10;;;;;;;4.32;1.50;;;;;;;19.69;26.16;101383.22;16134002;19;129479;-58
2022/04/20 12:24:32;;;;;;;8.23;1.40;;;;;;;19.67;26.15;101379.88;16129065;19;131676;-58
2022/04/20 12:29:55;;;;;;;5.40;1.35;;;;;;;19.67;25.85;101371.53;16146928;19;130377;-58
2022/04/20 12:35:20;;;;;;;13.02;1.50;;;;;;;19.68;26.38;101372.38;16149099;19;129327;-58
2022/04/20 12:40:42;;;;;;;8.30;1.60;;;;;;;19.67;26.38;101379.88;16147562;19;129555;-58
2022/04/20 12:46:13;;;;;;;6.22;1.40;;;;;;;19.68;26.18;101364.03;16145026;19;129496;-58
2022/04/20 12:51:35;;;;;;;7.18;1.48;;;;;;;19.65;26.41;101354.28;16136956;19;129400;-58
2022/04/20 13:03:16;;;;;;;3.45;1.30;;;;;;;19.64;26.40;101343.41;16146692;19;129320;-58
2022/04/20 13:08:40;;;;;;;5.80;0.98;;;;;;;19.60;26.56;101334.72;16147359;19;129164;-58
2022/04/20 13:14:03;;;;;;;3.20;1.20;;;;;;;19.58;26.27;101323.00;16141826;19;129436;-58
2022/04/20 13:19:25;;;;;;;3.50;1.20;;;;;;;19.57;26.33;101306.63;16143179;19;129102;-59
2022/04/20 13:30:35;;;;;;;4.30;1.30;;;;;;;19.57;26.34;101284.41;16139463;19;129490;-58
2022/04/20 13:35:57;;;;;;;3.30;0.90;;;;;;;19.55;26.20;101287.44;16147354;19;129029;-58
2022/04/20 13:41:19;;;;;;;1.35;0.95;;;;;;;19.55;26.38;101276.34;16144399;19;129437;-58
2022/04/20 13:46:40;;;;;;;7.25;1.10;;;;;;;19.54;26.40;101280.19;16140752;19;129279;-59
2022/04/20 13:52:03;;;;;;;3.72;0.85;;;;;;;19.54;26.37;101280.19;16143339;19;129368;-58
2022/04/20 13:57:25;;;;;;;3.08;1.15;;;;;;;19.55;26.61;101286.59;16143804;19;129116;-58
2022/04/20 14:02:46;;;;;;;2.47;0.90;;;;;;;19.53;26.11;101278.50;16142970;19;129374;-57
2022/04/20 14:08:09;;;;;;;1.23;0.85;;;;;;;19.53;26.66;101281.28;16139046;19;129094;-57
2022/04/20 14:13:31;;;;;;;2.53;0.90;;;;;;;19.52;26.50;101276.81;16137656;19;129987;-58
2022/04/20 14:18:55;;;;;;;0.60;0.60;;;;;;;19.53;26.38;101272.97;16140941;19;129203;-57
2022/04/20 14:24:17;;;;;;;1.33;0.88;;;;;;;19.51;26.59;101275.97;16140521;19;129902;-58
2022/04/20 14:35:19;;;;;;;3.00;1.20;;;;;;;19.50;26.37;101263.19;16142396;19;129260;-58
2022/04/20 14:40:41;;;;;;;3.55;1.00;;;;;;;19.49;26.36;101264.28;16138127;19;129287;-58
2022/04/20 14:46:03;;;;;;;1.73;0.90;;;;;;;19.50;26.67;101265.13;16137304;19;130276;-58
2022/04/20 14:51:24;;;;;;;5.95;1.20;;;;;;;19.49;26.70;101264.28;16136665;19;129250;-58
2022/04/20 14:56:46;;;;;;;3.40;1.17;;;;;;;19.50;26.52;101262.34;16140395;19;129051;-58
2022/04/20 15:02:14;;;;;;;2.85;0.90;;;;;;;19.52;26.67;101265.72;16137112;19;129576;-58
2022/04/20 15:07:36;;;;;;;2.65;1.10;;;;;;;19.52;26.63;101265.72;16126862;19;129650;-58
2022/04/20 15:12:59;;;;;;;3.90;1.33;;;;;;;19.52;26.58;101260.16;16131424;19;129416;-57
2022/04/20 15:18:20;;;;;;;4.40;1.23;;;;;;;19.52;26.90;101265.72;16137686;19;130158;-57
2022/04/20 15:23:43;;;;;;;3.78;2.15;;;;;;;19.51;27.02;101245.44;16137227;19;129200;-57
2022/04/20 15:29:05;;;;;;;9.30;3.10;;;;;;;19.52;27.36;101249.91;16138288;19;128816;-58
2022/04/20 15:34:26;;;;;;;62.42;22.65;;;;;;;19.55;28.41;101248.59;16133660;19;129824;-56
2022/04/20 15:39:49;;;;;;;48.97;18.02;;;;;;;19.58;28.85;101248.06;16143218;19;131252;-56
2022/04/20 15:45:15;;;;;;;47.25;16.65;;;;;;;19.58;28.28;101250.84;16133200;19;130063;-57
2022/04/20 15:50:38;;;;;;;43.67;14.77;;;;;;;19.58;29.36;101242.53;16133802;19;130424;-58
2022/04/20 16:01:40;;;;;;;21.55;10.15;;;;;;;19.58;29.34;101236.97;16136063;19;129596;-58
2022/04/20 16:07:04;;;;;;;25.10;9.15;;;;;;;19.59;29.32;101227.56;16146066;19;129258;-57
2022/04/20 16:12:26;;;;;;;26.15;8.93;;;;;;;19.60;29.02;101232.03;16138690;19;130472;-57
2022/04/20 16:17:48;;;;;;;18.65;7.35;;;;;;;19.61;29.45;101228.16;16149775;19;129774;-57
2022/04/20 16:23:11;;;;;;;19.55;8.15;;;;;;;19.61;29.31;101225.38;16147143;19;132564;-57
2022/04/20 16:28:32;;;;;;;15.30;6.72;;;;;;;19.62;29.17;101218.75;16152147;19;129737;-59
2022/04/20 16:33:54;;;;;;;16.13;6.63;;;;;;;19.64;29.19;101226.81;16146734;19;130588;-57
2022/04/20 16:39:16;;;;;;;15.30;6.43;;;;;;;19.65;29.25;101231.28;16145719;19;129437;-58
2022/04/20 16:44:38;;;;;;;16.13;5.18;;;;;;;19.65;29.17;101228.50;16139628;19;129658;-57
2022/04/20 16:50:00;;;;;;;11.48;4.93;;;;;;;19.65;29.24;101220.19;16144021;19;129021;-57
2022/04/20 16:55:22;;;;;;;17.02;4.82;;;;;;;19.64;29.24;101216.56;16146000;19;130376;-58
2022/04/20 17:00:47;;;;;;;8.95;3.85;;;;;;;19.64;28.88;101213.81;16144232;19;129623;-57
2022/04/20 17:06:08;;;;;;;11.27;4.30;;;;;;;19.63;28.62;101208.50;16136995;19;130836;-57
2022/04/20 17:11:31;;;;;;;10.88;2.92;;;;;;;19.60;28.57;101201.50;16140928;19;130498;-56
2022/04/20 17:16:54;;;;;;;6.68;2.83;;;;;;;19.61;28.93;101197.63;16143350;19;129846;-55
2022/04/20 17:27:57;;;;;;;23.92;3.08;;;;;;;19.63;28.87;101206.56;16132299;19;129768;-53
2022/04/20 17:33:19;;;;;;;15.63;2.38;;;;;;;19.66;28.77;101208.84;16139327;19;130085;-57
2022/04/20 17:38:40;;;;;;;6.13;2.13;;;;;;;19.69;28.64;101210.28;16140859;19;131151;-56
2022/04/20 17:44:03;;;;;;;22.92;2.33;;;;;;;19.69;28.67;101211.13;16139392;19;129847;-55
2022/04/20 17:49:25;;;;;;;13.10;2.40;;;;;;;19.71;28.16;101212.81;16135381;19;129446;-57
2022/04/20 17:54:48;;;;;;;12.60;2.15;;;;;;;19.71;28.31;101210.03;16143376;19;129636;-56
2022/04/20 18:00:10;;;;;;;9.98;2.28;;;;;;;19.68;28.23;101203.91;16138777;19;129998;-56
2022/04/20 18:05:34;;;;;;;12.05;2.08;;;;;;;19.67;28.74;101202.22;16139792;19;129047;-56
2022/04/20 18:10:56;;;;;;;14.15;2.25;;;;;;;19.68;28.63;101208.59;16138270;19;129490;-57
2022/04/20 18:16:18;;;;;;;8.25;1.58;;;;;;;19.71;28.65;101207.25;16138433;19;130378;-55
2022/04/20 18:21:40;;;;;;;7.53;1.42;;;;;;;19.83;28.55;101213.59;16140564;19;130531;-57
2022/04/20 18:27:02;;;;;;;6.32;1.42;;;;;;;20.08;28.11;101212.44;16131172;19;129661;-55
2022/04/20 18:32:27;;;;;;;17.73;1.80;;;;;;;20.34;28.05;101221.22;16133710;19;129540;-57
2022/04/20 18:37:49;;;;;;;6.57;1.60;;;;;;;20.55;28.27;101212.19;16137820;19;128972;-57
2022/04/20 18:43:11;;;;;;;12.85;1.42;;;;;;;20.75;28.13;101221.94;16136794;19;129344;-58
2022/04/20 18:48:33;;;;;;;8.75;1.55;;;;;;;20.89;27.75;101228.88;16130341;19;129297;-56
2022/04/20 18:59:36;;;;;;;4.30;1.10;;;;;;;21.13;27.56;101222.22;16123882;19;129475;-56
2022/04/20 19:05:01;;;;;;;5.72;0.90;;;;;;;21.16;27.82;101230.94;16125451;19;132432;-57
2022/04/20 19:10:23;;;;;;;12.60;1.20;;;;;;;21.14;27.63;101235.91;16132386;19;129806;-58
2022/04/20 19:15:46;;;;;;;19.42;2.08;;;;;;;21.03;28.05;101240.47;16133725;19;130478;-58
2022/04/20 19:21:07;;;;;;;17.50;1.55;;;;;;;20.95;27.92;101242.84;16124030;19;130163;-58
2022/04/20 19:26:29;;;;;;;22.90;1.63;;;;;;;20.87;27.86;101247.75;16133566;19;129751;-61
2022/04/20 19:31:52;;;;;;;15.07;1.83;;;;;;;20.82;28.30;101256.00;16133246;19;129506;-58
2022/04/20 19:37:15;;;;;;;16.13;1.27;;;;;;;20.76;28.38;101259.78;16142675;19;130449;-62
2022/04/20 19:42:40;;;;;;;9.68;1.35;;;;;;;20.72;28.57;101266.91;16151741;19;132474;-62
2022/04/20 19:48:01;;;;;;;5.40;0.90;;;;;;;20.67;28.56;101264.06;16146206;19;130212;-65
2022/04/20 19:53:23;;;;;;;9.25;0.80;;;;;;;20.60;28.71;101265.06;16147721;19;130438;-60
2022/04/20 19:58:45;;;;;;;11.55;1.23;;;;;;;20.55;29.14;101270.56;16142138;19;130053;-63
2022/04/20 20:04:07;;;;;;;12.25;1.20;;;;;;;20.54;28.75;101263.31;16143926;19;130263;-60
2022/04/20 20:09:29;;;;;;;14.18;1.00;;;;;;;20.56;28.97;101272.19;16141345;19;130447;-59
2022/04/20 20:14:51;;;;;;;12.20;1.35;;;;;;;20.58;28.60;101270.03;16136068;19;129351;-59
2022/04/20 20:20:17;;;;;;;6.50;1.00;;;;;;;20.64;28.86;101276.50;16143635;19;129671;-59
2022/04/20 20:31:19;;;;;;;14.55;1.10;;;;;;;20.67;28.97;101264.06;16132471;19;130253;-58
2022/04/20 20:36:41;;;;;;;6.25;0.90;;;;;;;20.68;28.61;101265.72;16135906;19;130137;-58
2022/04/20 20:42:05;;;;;;;2.28;1.08;;;;;;;20.67;28.93;101269.63;16135345;19;129661;-58
2022/04/20 20:47:27;;;;;;;6.97;1.10;;;;;;;20.62;29.06;101270.34;16133855;19;132354;-58
2022/04/20 20:52:49;;;;;;;2.47;0.57;;;;;;;20.56;28.62;101263.03;16138185;19;130746;-59
2022/04/20 20:58:12;;;;;;;4.78;1.20;;;;;;;20.51;29.06;101263.78;16140105;19;129694;-58
2022/04/20 21:03:33;;;;;;;13.80;0.80;;;;;;;20.47;29.35;101261.78;16137004;19;131911;-58
2022/04/20 21:08:56;;;;;;;4.43;0.63;;;;;;;20.39;29.09;101258.28;16135926;19;130258;-58
2022/04/20 21:14:18;;;;;;;2.40;1.00;;;;;;;20.32;29.04;101262.31;16131565;19;129459;-58
2022/04/20 21:19:40;;;;;;;5.05;0.77;;;;;;;20.24;29.41;101261.63;16136002;19;129735;-58
2022/04/20 21:25:01;;;;;;;4.88;0.70;;;;;;;20.18;29.09;101268.22;16133195;19;130249;-58
2022/04/20 21:30:24;;;;;;;2.25;0.60;;;;;;;20.14;29.14;101267.00;16135459;19;130701;-59
2022/04/20 21:35:47;;;;;;;3.10;0.68;;;;;;;20.10;29.14;101268.59;16135633;19;129777;-58
2022/04/20 21:41:09;;;;;;;1.95;0.50;;;;;;;20.06;29.14;101270.19;16139126;19;131023;-58
2022/04/20 21:46:31;;;;;;;3.13;0.70;;;;;;;20.02;29.42;101261.50;16141109;19;131801;-58
2022/04/20 21:51:53;;;;;;;0.90;0.60;;;;;;;19.99;29.24;101268.38;16140487;19;128924;-58
2022/04/20 21:57:15;;;;;;;2.35;0.90;;;;;;;19.96;29.05;101266.06;16140758;19;130108;-58
2022/04/20 22:08:24;;;;;;;1.65;0.80;;;;;;;19.91;28.94;101260.44;16136223;19;130157;-58
2022/04/20 22:13:46;;;;;;;3.10;0.70;;;;;;;19.88;29.09;101258.13;16139250;19;128832;-58
2022/04/20 22:19:09;;;;;;;1.13;0.60;;;;;;;19.85;29.00;101255.84;16142849;19;129285;-58
2022/04/20 22:24:32;;;;;;;1.40;0.60;;;;;;;19.82;29.29;101254.41;16141380;19;129372;-58
2022/04/20 22:29:55;;;;;;;2.42;0.80;;;;;;;19.82;28.77;101256.34;16134353;19;128870;-58
2022/04/20 22:35:16;;;;;;;2.67;0.85;;;;;;;19.77;29.20;101251.53;16134783;19;130114;-55
2022/04/20 22:40:38;;;;;;;2.60;0.70;;;;;;;19.75;29.21;101242.63;16138217;19;129130;-58
2022/04/20 22:46:03;;;;;;;4.18;0.68;;;;;;;19.73;29.00;101242.03;16137669;19;129337;-59
2022/04/20 22:51:25;;;;;;;1.27;0.60;;;;;;;19.71;29.00;101240.56;16139230;19;130161;-58
2022/04/20 22:56:47;;;;;;;2.03;0.60;;;;;;;19.67;29.07;101241.06;16136991;19;128981;-58
2022/04/20 23:02:09;;;;;;;2.67;0.95;;;;;;;19.65;28.71;101234.91;16136924;19;129118;-58
2022/04/20 23:07:30;;;;;;;1.98;0.77;;;;;;;19.64;29.05;101247.09;16132542;19;129838;-58
2022/04/20 23:12:52;;;;;;;0.80;0.55;;;;;;;19.62;29.16;101234.56;16131716;19;129867;-58
2022/04/20 23:18:14;;;;;;;1.10;0.52;;;;;;;19.60;28.71;101223.69;16135790;19;129806;-58
2022/04/20 23:23:36;;;;;;;0.68;0.40;;;;;;;19.57;28.97;101226.97;16127638;19;129570;-59
2022/04/20 23:28:59;;;;;;;0.70;0.68;;;;;;;19.56;28.93;101221.66;16118100;19;129595;-58
2022/04/20 23:34:20;;;;;;;2.28;0.63;;;;;;;19.52;28.85;101226.88;16120790;19;129680;-58
2022/04/20 23:39:42;;;;;;;1.95;0.82;;;;;;;19.51;28.69;101233.50;16130422;19;129430;-58
2022/04/20 23:45:05;;;;;;;1.65;0.80;;;;;;;19.49;28.95;101227.34;16136322;19;129017;-58
2022/04/20 23:50:28;;;;;;;1.13;0.55;;;;;;;19.47;28.97;101232.28;16133409;19;129637;-58
2022/04/20 23:55:51;;;;;;;2.08;0.60;;;;;;;19.45;29.01;101220.59;16134977;19;130544;-58
